createdAt,value
2022-09-30T00:01:53.392Z,100.00
2022-09-30T00:04:22.218Z,100.00
2022-09-30T00:06:49.786Z,100.00
2022-09-30T00:09:16.661Z,100.00
2022-09-30T00:11:43.510Z,100.00
2022-09-30T00:14:16.292Z,100.00
2022-09-30T00:16:43.677Z,100.00
2022-09-30T00:19:10.508Z,100.00
2022-09-30T00:21:37.201Z,100.00
2022-09-30T00:24:05.182Z,100.00
2022-09-30T00:26:32.410Z,100.00
2022-09-30T00:29:00.749Z,100.00
2022-09-30T00:31:30.851Z,100.00
2022-09-30T00:34:11.177Z,100.00
2022-09-30T00:36:44.744Z,100.00
2022-09-30T00:39:16.058Z,100.00
2022-09-30T00:41:43.301Z,100.00
2022-09-30T00:44:47.189Z,100.00
2022-09-30T00:47:41.684Z,100.00
2022-09-30T00:50:23.086Z,100.00
2022-09-30T00:52:55.713Z,100.00
2022-09-30T00:55:33.824Z,100.00
2022-09-30T00:58:03.690Z,100.00
2022-09-30T01:00:30.370Z,100.00
2022-09-30T01:02:57.194Z,100.00
2022-09-30T01:05:26.424Z,100.00
2022-09-30T01:07:56.390Z,100.00
2022-09-30T01:10:22.741Z,100.00
2022-09-30T01:12:49.128Z,100.00
2022-09-30T01:15:15.875Z,100.00
2022-09-30T01:17:57.808Z,100.00
2022-09-30T01:20:47.681Z,100.00
2022-09-30T01:23:32.297Z,100.00
2022-09-30T01:26:18.884Z,100.00
2022-09-30T01:29:06.733Z,100.00
2022-09-30T01:31:43.909Z,100.00
2022-09-30T01:34:22.031Z,100.00
2022-09-30T01:37:13.438Z,100.00
2022-09-30T01:40:07.776Z,100.00
2022-09-30T01:42:42.448Z,100.00
2022-09-30T01:45:33.999Z,100.00
2022-09-30T01:48:12.565Z,100.00
2022-09-30T01:51:07.475Z,100.00
2022-09-30T01:54:00.913Z,100.00
2022-09-30T01:56:30.761Z,100.00
2022-09-30T01:59:06.551Z,100.00
2022-09-30T02:01:39.269Z,100.00
2022-09-30T02:04:24.123Z,100.00
2022-09-30T02:06:56.367Z,100.00
2022-09-30T02:09:29.471Z,100.00
2022-09-30T02:11:59.930Z,100.00
2022-09-30T02:14:37.449Z,100.00
2022-09-30T02:17:15.519Z,100.00
2022-09-30T02:19:48.538Z,100.00
2022-09-30T02:22:20.071Z,100.00
2022-09-30T02:24:52.940Z,100.00
2022-09-30T02:27:28.390Z,100.00
2022-09-30T02:30:01.556Z,100.00
2022-09-30T02:32:34.122Z,100.00
2022-09-30T02:35:06.473Z,100.00
2022-09-30T02:37:39.033Z,100.00
2022-09-30T02:40:12.133Z,100.00
2022-09-30T02:42:39.561Z,100.00
2022-09-30T02:45:16.230Z,100.00
2022-09-30T02:48:26.167Z,100.00
2022-09-30T02:51:05.577Z,100.00
2022-09-30T02:53:51.212Z,100.00
2022-09-30T02:56:42.661Z,100.00
2022-09-30T02:59:09.491Z,100.00
2022-09-30T03:01:41.762Z,100.00
2022-09-30T03:04:12.434Z,100.00
2022-09-30T03:06:39.511Z,100.00
2022-09-30T03:09:06.034Z,100.00
2022-09-30T03:11:32.553Z,100.00
2022-09-30T03:14:01.651Z,100.00
2022-09-30T03:16:46.799Z,100.00
2022-09-30T03:19:31.458Z,100.00
2022-09-30T03:22:19.122Z,100.00
2022-09-30T03:24:53.305Z,100.00
2022-09-30T03:27:32.433Z,100.00
2022-09-30T03:30:13.597Z,100.00
2022-09-30T03:33:05.973Z,100.00
2022-09-30T03:36:04.801Z,100.00
2022-09-30T03:38:47.461Z,100.00
2022-09-30T03:41:47.739Z,100.00
2022-09-30T03:44:38.901Z,100.00
2022-09-30T03:47:09.589Z,100.00
2022-09-30T03:49:41.850Z,100.00
2022-09-30T03:52:10.878Z,100.00
2022-09-30T03:54:52.921Z,100.00
2022-09-30T03:57:19.274Z,100.00
2022-09-30T03:59:45.712Z,100.00
2022-09-30T04:02:13.258Z,100.00
2022-09-30T04:04:41.020Z,100.00
2022-09-30T04:07:08.899Z,100.00
2022-09-30T04:09:35.322Z,100.00
2022-09-30T04:12:01.762Z,100.00
2022-09-30T04:14:28.143Z,100.00
2022-09-30T04:16:54.497Z,100.00
2022-09-30T04:19:21.208Z,100.00
2022-09-30T04:21:47.681Z,100.00
2022-09-30T04:24:14.364Z,100.00
2022-09-30T04:26:40.706Z,100.00
2022-09-30T04:29:07.041Z,100.00
2022-09-30T04:31:33.447Z,100.00
2022-09-30T04:33:59.805Z,100.00
2022-09-30T04:36:26.268Z,100.00
2022-09-30T04:38:53.445Z,100.00
2022-09-30T04:41:20.538Z,100.00
2022-09-30T04:43:48.144Z,100.00
2022-09-30T04:46:18.519Z,100.00
2022-09-30T04:48:45.879Z,100.00
2022-09-30T04:51:17.689Z,100.00
2022-09-30T04:53:44.356Z,100.00
2022-09-30T04:56:11.375Z,100.00
2022-09-30T04:58:38.276Z,100.00
2022-09-30T05:01:07.081Z,100.00
2022-09-30T05:03:34.382Z,100.00
2022-09-30T05:06:01.248Z,100.00
2022-09-30T05:08:27.636Z,100.00
2022-09-30T05:10:59.283Z,100.00
2022-09-30T05:13:29.599Z,100.00
2022-09-30T05:15:56.318Z,100.00
2022-09-30T05:18:25.891Z,100.00
2022-09-30T05:20:53.596Z,100.00
2022-09-30T05:23:20.791Z,100.00
2022-09-30T05:25:47.713Z,100.00
2022-09-30T05:28:14.875Z,100.00
2022-09-30T05:30:45.269Z,100.00
2022-09-30T05:33:13.076Z,100.00
2022-09-30T05:35:41.424Z,100.00
2022-09-30T05:38:09.595Z,100.00
2022-09-30T05:40:39.643Z,100.00
2022-09-30T05:43:07.186Z,100.00
2022-09-30T05:45:34.352Z,100.00
2022-09-30T05:48:01.239Z,100.00
2022-09-30T05:50:28.031Z,100.00
2022-09-30T05:52:54.394Z,100.00
2022-09-30T05:55:22.538Z,100.00
2022-09-30T05:57:50.725Z,100.00
2022-09-30T06:00:18.604Z,100.00
2022-09-30T06:02:45.001Z,100.00
2022-09-30T06:05:12.542Z,100.00
2022-09-30T06:07:39.618Z,100.00
2022-09-30T06:10:11.054Z,100.00
2022-09-30T06:12:38.462Z,100.00
2022-09-30T06:15:05.781Z,100.00
2022-09-30T06:17:32.207Z,100.00
2022-09-30T06:19:58.530Z,100.00
2022-09-30T06:22:25.269Z,100.00
2022-09-30T06:24:55.020Z,100.00
2022-09-30T06:27:22.052Z,100.00
2022-09-30T06:29:49.199Z,100.00
2022-09-30T06:32:15.562Z,100.00
2022-09-30T06:34:41.895Z,100.00
2022-09-30T06:37:08.237Z,100.00
2022-09-30T06:39:34.608Z,100.00
2022-09-30T06:42:00.979Z,100.00
2022-09-30T06:44:27.361Z,100.00
2022-09-30T06:46:54.458Z,100.00
2022-09-30T06:49:21.305Z,100.00
2022-09-30T06:51:47.756Z,100.00
2022-09-30T06:54:14.131Z,100.00
2022-09-30T06:56:40.516Z,100.00
2022-09-30T06:59:07.012Z,100.00
2022-09-30T07:01:37.081Z,100.00
2022-09-30T07:04:09.290Z,100.00
2022-09-30T07:06:35.646Z,100.00
2022-09-30T07:09:01.998Z,100.00
2022-09-30T07:11:28.383Z,100.00
2022-09-30T07:13:55.392Z,100.00
2022-09-30T07:16:21.828Z,100.00
2022-09-30T07:18:48.260Z,100.00
2022-09-30T07:21:16.251Z,100.00
2022-09-30T07:23:48.064Z,100.00
2022-09-30T07:26:16.878Z,100.00
2022-09-30T07:28:44.003Z,100.00
2022-09-30T07:31:35.588Z,100.00
2022-09-30T07:34:07.061Z,100.00
2022-09-30T07:36:37.537Z,100.00
2022-09-30T07:39:07.089Z,100.00
2022-09-30T07:41:35.913Z,100.00
2022-09-30T07:44:02.905Z,100.00
2022-09-30T07:46:32.648Z,100.00
2022-09-30T07:49:05.518Z,100.00
2022-09-30T07:51:37.251Z,100.00
2022-09-30T07:54:06.714Z,100.00
2022-09-30T07:56:51.262Z,100.00
2022-09-30T07:59:20.861Z,100.00
2022-09-30T08:01:48.518Z,100.00
2022-09-30T08:04:15.785Z,100.00
2022-09-30T08:06:47.992Z,100.00
2022-09-30T08:09:16.849Z,100.00
2022-09-30T08:11:43.323Z,100.00
2022-09-30T08:14:15.487Z,100.00
2022-09-30T08:16:42.098Z,100.00
2022-09-30T08:19:14.151Z,100.00
2022-09-30T08:21:40.509Z,100.00
2022-09-30T08:24:06.937Z,100.00
2022-09-30T08:26:33.302Z,100.00
2022-09-30T08:29:00.701Z,100.00
2022-09-30T08:31:28.000Z,100.00
2022-09-30T08:33:54.626Z,100.00
2022-09-30T08:36:23.525Z,100.00
2022-09-30T08:38:50.665Z,100.00
2022-09-30T08:41:33.803Z,100.00
2022-09-30T08:44:20.381Z,100.00
2022-09-30T08:46:58.388Z,100.00
2022-09-30T08:49:49.701Z,100.00
2022-09-30T08:52:48.363Z,100.00
2022-09-30T08:55:21.870Z,100.00
2022-09-30T08:57:48.823Z,100.00
2022-09-30T09:00:18.034Z,100.00
2022-09-30T09:02:54.972Z,100.00
2022-09-30T09:05:50.040Z,100.00
2022-09-30T09:08:40.103Z,100.00
2022-09-30T09:11:21.047Z,100.00
2022-09-30T09:13:55.448Z,100.00
2022-09-30T09:16:42.222Z,100.00
2022-09-30T09:19:11.382Z,100.00
2022-09-30T09:21:54.789Z,100.00
2022-09-30T09:24:25.249Z,100.00
2022-09-30T09:26:54.511Z,99.85
2022-09-30T09:29:39.386Z,98.17
2022-09-30T09:32:17.507Z,98.88
2022-09-30T09:34:46.048Z,96.82
2022-09-30T09:37:58.435Z,98.69
2022-09-30T09:40:42.999Z,97.85
2022-09-30T09:43:24.992Z,97.73
2022-09-30T09:46:22.081Z,97.23
2022-09-30T09:48:50.829Z,96.88
2022-09-30T09:51:32.699Z,96.58
2022-09-30T09:54:01.157Z,96.71
2022-09-30T09:56:32.396Z,97.04
2022-09-30T09:59:25.738Z,97.57
2022-09-30T10:01:54.157Z,97.65
2022-09-30T10:04:33.047Z,95.81
2022-09-30T10:07:14.814Z,94.69
2022-09-30T10:09:43.098Z,93.84
2022-09-30T10:12:09.378Z,93.72
2022-09-30T10:14:46.017Z,92.91
2022-09-30T10:17:26.745Z,91.32
2022-09-30T10:19:57.858Z,91.39
2022-09-30T10:22:32.437Z,91.50
2022-09-30T10:25:13.857Z,91.58
2022-09-30T10:27:56.672Z,90.63
2022-09-30T10:30:44.686Z,89.91
2022-09-30T10:33:23.571Z,90.15
2022-09-30T10:35:54.221Z,86.94
2022-09-30T10:38:22.870Z,87.12
2022-09-30T10:40:51.084Z,86.84
2022-09-30T10:43:33.861Z,85.58
2022-09-30T10:46:24.543Z,85.59
2022-09-30T10:48:51.727Z,84.66
2022-09-30T10:51:34.021Z,83.44
2022-09-30T10:54:01.195Z,84.42
2022-09-30T10:56:45.545Z,83.80
2022-09-30T10:59:23.656Z,82.24
2022-09-30T11:01:58.032Z,80.17
2022-09-30T11:04:37.730Z,79.11
2022-09-30T11:07:16.961Z,78.96
2022-09-30T11:09:55.075Z,81.72
2022-09-30T11:12:32.557Z,79.89
2022-09-30T11:15:37.442Z,77.87
2022-09-30T11:18:21.400Z,79.00
2022-09-30T11:20:56.848Z,78.43
2022-09-30T11:23:44.355Z,77.92
2022-09-30T11:26:36.965Z,77.72
2022-09-30T11:29:15.280Z,75.94
2022-09-30T11:31:57.683Z,74.78
2022-09-30T11:34:26.915Z,76.15
2022-09-30T11:37:05.516Z,75.12
2022-09-30T11:39:56.817Z,75.44
2022-09-30T11:42:36.484Z,76.43
2022-09-30T11:45:29.320Z,75.75
2022-09-30T11:48:18.111Z,76.11
2022-09-30T11:51:09.664Z,75.98
2022-09-30T11:54:05.299Z,76.76
2022-09-30T11:56:53.191Z,76.36
2022-09-30T11:59:26.552Z,75.16
2022-09-30T12:01:56.724Z,75.63
2022-09-30T12:04:34.581Z,77.76
2022-09-30T12:07:11.464Z,76.01
2022-09-30T12:09:47.961Z,77.26
2022-09-30T12:12:18.746Z,75.71
2022-09-30T12:14:48.086Z,74.75
2022-09-30T12:17:26.960Z,72.73
2022-09-30T12:19:56.915Z,73.83
2022-09-30T12:22:40.998Z,74.38
2022-09-30T12:25:13.656Z,74.59
2022-09-30T12:27:46.947Z,72.89
2022-09-30T12:30:20.399Z,75.69
2022-09-30T12:33:19.827Z,75.03
2022-09-30T12:36:03.792Z,73.25
2022-09-30T12:39:07.403Z,73.37
2022-09-30T12:41:48.590Z,73.12
2022-09-30T12:44:33.581Z,73.74
2022-09-30T12:47:21.465Z,73.88
2022-09-30T12:49:48.965Z,73.18
2022-09-30T12:52:19.642Z,73.79
2022-09-30T12:55:00.487Z,74.40
2022-09-30T12:57:32.406Z,75.31
2022-09-30T13:00:14.758Z,74.74
2022-09-30T13:02:44.342Z,74.98
2022-09-30T13:05:29.427Z,74.53
2022-09-30T13:08:05.024Z,73.80
2022-09-30T13:10:45.501Z,73.25
2022-09-30T13:13:23.811Z,70.76
2022-09-30T13:16:03.126Z,72.28
2022-09-30T13:18:32.307Z,73.67
2022-09-30T13:21:04.845Z,74.64
2022-09-30T13:23:49.268Z,72.51
2022-09-30T13:26:27.842Z,73.40
2022-09-30T13:29:18.873Z,70.91
2022-09-30T13:31:45.211Z,71.74
2022-09-30T13:34:21.432Z,71.30
2022-09-30T13:36:50.770Z,72.08
2022-09-30T13:39:23.144Z,70.48
2022-09-30T13:42:07.300Z,70.36
2022-09-30T13:44:58.439Z,72.11
2022-09-30T13:47:32.151Z,74.53
2022-09-30T13:50:31.153Z,74.42
2022-09-30T13:53:01.018Z,71.75
2022-09-30T13:55:35.939Z,70.96
2022-09-30T13:58:24.170Z,71.17
2022-09-30T14:00:59.369Z,70.49
2022-09-30T14:03:56.884Z,69.51
2022-09-30T14:06:57.757Z,68.90
2022-09-30T14:09:47.186Z,65.81
2022-09-30T14:12:45.443Z,64.79
2022-09-30T14:15:18.992Z,62.72
2022-09-30T14:18:19.738Z,63.96
2022-09-30T14:20:51.625Z,65.58
2022-09-30T14:23:19.159Z,67.26
2022-09-30T14:25:59.582Z,64.77
2022-09-30T14:28:36.749Z,64.35
2022-09-30T14:31:10.318Z,62.13
2022-09-30T14:33:37.264Z,63.71
2022-09-30T14:36:11.486Z,62.31
2022-09-30T14:38:37.962Z,61.98
2022-09-30T14:41:13.424Z,60.70
2022-09-30T14:43:45.053Z,62.15
2022-09-30T14:46:26.420Z,61.99
2022-09-30T14:48:56.877Z,63.49
2022-09-30T14:51:24.057Z,63.92
2022-09-30T14:53:55.664Z,63.93
2022-09-30T14:56:29.343Z,64.22
2022-09-30T14:58:58.164Z,65.84
2022-09-30T15:01:27.618Z,65.38
2022-09-30T15:04:02.571Z,63.31
2022-09-30T15:06:32.840Z,63.58
2022-09-30T15:09:06.874Z,63.53
2022-09-30T15:11:38.788Z,63.85
2022-09-30T15:14:16.381Z,63.56
2022-09-30T15:16:50.940Z,62.60
2022-09-30T15:19:25.053Z,63.19
2022-09-30T15:21:54.245Z,62.14
2022-09-30T15:24:24.212Z,62.58
2022-09-30T15:26:53.218Z,62.48
2022-09-30T15:29:19.593Z,61.71
2022-09-30T15:31:51.779Z,61.02
2022-09-30T15:34:24.023Z,61.29
2022-09-30T15:37:06.802Z,62.02
2022-09-30T15:40:06.303Z,62.25
2022-09-30T15:42:35.502Z,62.43
2022-09-30T15:45:04.236Z,61.65
2022-09-30T15:47:30.978Z,61.71
2022-09-30T15:49:57.483Z,62.24
2022-09-30T15:52:37.213Z,61.96
2022-09-30T15:55:38.643Z,61.23
2022-09-30T15:58:05.458Z,61.71
2022-09-30T16:00:41.655Z,61.95
2022-09-30T16:03:30.404Z,61.50
2022-09-30T16:06:15.251Z,62.27
2022-09-30T16:08:44.692Z,62.52
2022-09-30T16:11:20.492Z,62.07
2022-09-30T16:13:48.165Z,63.11
2022-09-30T16:16:20.401Z,63.11
2022-09-30T16:18:48.191Z,64.45
2022-09-30T16:21:44.243Z,64.75
2022-09-30T16:24:22.479Z,66.00
2022-09-30T16:26:51.551Z,65.99
2022-09-30T16:29:18.911Z,65.81
2022-09-30T16:31:48.890Z,66.46
2022-09-30T16:34:21.044Z,67.16
2022-09-30T16:36:47.563Z,67.24
2022-09-30T16:39:15.870Z,67.70
2022-09-30T16:41:42.938Z,68.25
2022-09-30T16:44:10.150Z,68.02
2022-09-30T16:46:37.157Z,68.59
2022-09-30T16:49:15.011Z,69.41
2022-09-30T16:51:42.061Z,69.98
2022-09-30T16:54:09.115Z,70.75
2022-09-30T16:56:35.724Z,71.26
2022-09-30T16:59:02.385Z,71.39
2022-09-30T17:01:29.217Z,71.83
2022-09-30T17:03:57.138Z,71.76
2022-09-30T17:06:29.730Z,72.26
2022-09-30T17:08:57.003Z,73.15
2022-09-30T17:11:31.064Z,73.38
2022-09-30T17:13:58.001Z,74.50
2022-09-30T17:16:25.465Z,75.45
2022-09-30T17:18:52.454Z,80.15
2022-09-30T17:21:24.212Z,81.52
2022-09-30T17:23:51.449Z,82.69
2022-09-30T17:26:18.435Z,83.25
2022-09-30T17:28:45.218Z,84.14
2022-09-30T17:31:11.894Z,85.08
2022-09-30T17:33:40.462Z,86.16
2022-09-30T17:36:13.150Z,88.00
2022-09-30T17:38:40.369Z,89.67
2022-09-30T17:41:28.502Z,89.93
2022-09-30T17:43:54.825Z,91.10
2022-09-30T17:46:23.423Z,92.95
2022-09-30T17:48:54.692Z,91.81
2022-09-30T17:51:21.087Z,93.03
2022-09-30T17:53:48.103Z,95.04
2022-09-30T17:56:19.292Z,95.04
2022-09-30T17:58:47.646Z,95.27
2022-09-30T18:01:15.396Z,95.50
2022-09-30T18:03:41.790Z,95.69
2022-09-30T18:06:08.221Z,97.64
2022-09-30T18:08:35.692Z,96.68
2022-09-30T18:11:02.691Z,97.17
2022-09-30T18:13:29.597Z,97.29
2022-09-30T18:15:59.062Z,98.64
2022-09-30T18:18:25.472Z,98.84
2022-09-30T18:20:51.990Z,100.00
2022-09-30T18:23:18.955Z,100.00
2022-09-30T18:25:49.647Z,99.44
2022-09-30T18:28:16.791Z,98.54
2022-09-30T18:30:43.697Z,98.96
2022-09-30T18:33:10.919Z,100.00
2022-09-30T18:35:39.285Z,100.00
2022-09-30T18:38:06.783Z,100.00
2022-09-30T18:40:33.592Z,100.00
2022-09-30T18:43:02.605Z,100.00
2022-09-30T18:45:31.364Z,100.00
2022-09-30T18:47:59.804Z,100.00
2022-09-30T18:50:28.308Z,100.00
2022-09-30T18:52:55.880Z,100.00
2022-09-30T18:55:22.805Z,100.00
2022-09-30T18:57:50.409Z,100.00
2022-09-30T19:00:17.809Z,100.00
2022-09-30T19:02:44.680Z,100.00
2022-09-30T19:05:12.979Z,100.00
2022-09-30T19:07:39.426Z,100.00
2022-09-30T19:10:09.948Z,100.00
2022-09-30T19:12:37.813Z,100.00
2022-09-30T19:15:05.815Z,100.00
2022-09-30T19:17:32.926Z,100.00
2022-09-30T19:20:00.624Z,100.00
2022-09-30T19:22:28.279Z,100.00
2022-09-30T19:24:54.849Z,100.00
2022-09-30T19:27:23.324Z,100.00
2022-09-30T19:29:50.089Z,100.00
2022-09-30T19:32:18.606Z,100.00
2022-09-30T19:34:53.839Z,100.00
2022-09-30T19:37:27.866Z,100.00
2022-09-30T19:39:54.366Z,100.00
2022-09-30T19:42:21.273Z,100.00
2022-09-30T19:44:47.709Z,100.00
2022-09-30T19:47:14.076Z,100.00
2022-09-30T19:49:40.422Z,100.00
2022-09-30T19:52:17.709Z,100.00
2022-09-30T19:54:47.023Z,100.00
2022-09-30T19:57:13.573Z,100.00
2022-09-30T19:59:39.928Z,100.00
2022-09-30T20:02:06.692Z,100.00
2022-09-30T20:04:34.209Z,100.00
2022-09-30T20:07:01.365Z,100.00
2022-09-30T20:09:27.704Z,100.00
2022-09-30T20:11:54.048Z,100.00
2022-09-30T20:14:39.020Z,100.00
2022-09-30T20:17:05.407Z,100.00
2022-09-30T20:19:31.755Z,100.00
2022-09-30T20:21:58.247Z,100.00
2022-09-30T20:24:25.941Z,100.00
2022-09-30T20:26:52.535Z,100.00
2022-09-30T20:29:20.565Z,100.00
2022-09-30T20:31:48.146Z,100.00
2022-09-30T20:34:16.176Z,100.00
2022-09-30T20:36:43.347Z,100.00
2022-09-30T20:39:10.975Z,100.00
2022-09-30T20:41:39.655Z,100.00
2022-09-30T20:44:13.852Z,100.00
2022-09-30T20:46:41.473Z,100.00
2022-09-30T20:49:07.913Z,100.00
2022-09-30T20:51:34.599Z,100.00
2022-09-30T20:54:01.403Z,100.00
2022-09-30T20:56:44.091Z,100.00
2022-09-30T20:59:16.996Z,100.00
2022-09-30T21:01:43.437Z,100.00
2022-09-30T21:04:09.922Z,100.00
2022-09-30T21:06:36.250Z,100.00
2022-09-30T21:09:03.442Z,100.00
2022-09-30T21:11:29.999Z,100.00
2022-09-30T21:13:56.695Z,100.00
2022-09-30T21:16:27.244Z,100.00
2022-09-30T21:18:53.968Z,100.00
2022-09-30T21:21:22.823Z,100.00
2022-09-30T21:23:59.205Z,100.00
2022-09-30T21:26:26.613Z,100.00
2022-09-30T21:28:52.952Z,100.00
2022-09-30T21:31:27.394Z,100.00
2022-09-30T21:33:56.433Z,100.00
2022-09-30T21:36:23.519Z,100.00
2022-09-30T21:38:50.781Z,100.00
2022-09-30T21:41:18.060Z,100.00
2022-09-30T21:43:44.472Z,100.00
2022-09-30T21:46:13.345Z,100.00
2022-09-30T21:48:39.950Z,100.00
2022-09-30T21:51:07.376Z,100.00
2022-09-30T21:53:34.246Z,100.00
2022-09-30T21:56:02.475Z,100.00
2022-09-30T21:58:31.635Z,100.00
2022-09-30T22:01:07.661Z,100.00
2022-09-30T22:03:37.856Z,100.00
2022-09-30T22:06:07.432Z,100.00
2022-09-30T22:08:36.275Z,100.00
2022-09-30T22:11:08.031Z,100.00
2022-09-30T22:13:34.603Z,100.00
2022-09-30T22:16:06.318Z,100.00
2022-09-30T22:18:33.072Z,100.00
2022-09-30T22:21:14.049Z,100.00
2022-09-30T22:23:40.892Z,100.00
2022-09-30T22:26:13.938Z,100.00
2022-09-30T22:28:40.356Z,100.00
2022-09-30T22:31:19.360Z,100.00
2022-09-30T22:34:10.256Z,100.00
2022-09-30T22:36:55.535Z,100.00
2022-09-30T22:39:22.690Z,100.00
2022-09-30T22:41:50.746Z,100.00
2022-09-30T22:44:17.857Z,100.00
2022-09-30T22:46:44.664Z,100.00
2022-09-30T22:49:11.852Z,100.00
2022-09-30T22:51:38.874Z,100.00
2022-09-30T22:54:05.755Z,100.00
2022-09-30T22:56:32.343Z,100.00
2022-09-30T22:58:59.495Z,100.00
2022-09-30T23:01:28.303Z,100.00
2022-09-30T23:03:55.719Z,100.00
2022-09-30T23:06:24.283Z,100.00
2022-09-30T23:08:51.719Z,100.00
2022-09-30T23:11:18.887Z,100.00
2022-09-30T23:13:46.406Z,100.00
2022-09-30T23:16:14.313Z,100.00
2022-09-30T23:18:41.130Z,100.00
2022-09-30T23:21:11.476Z,100.00
2022-09-30T23:23:39.103Z,100.00
2022-09-30T23:26:13.279Z,100.00
2022-09-30T23:28:41.198Z,100.00
2022-09-30T23:31:10.439Z,100.00
2022-09-30T23:33:39.547Z,100.00
2022-09-30T23:36:07.438Z,100.00
2022-09-30T23:38:34.043Z,100.00
2022-09-30T23:41:00.470Z,100.00
2022-09-30T23:43:30.092Z,100.00
2022-09-30T23:45:57.840Z,100.00
2022-09-30T23:48:24.708Z,100.00
2022-09-30T23:50:51.711Z,100.00
2022-09-30T23:53:18.325Z,100.00
2022-09-30T23:55:55.552Z,100.00
2022-09-30T23:58:23.381Z,100.00
